CEB461 RPLL-RPVI
Flight info
| Callsign | CEB461 |
|---|---|
| Flight time | 0h 53m |
| Altitude | 31000 |
| Route | RPLL 13 BUCA2V BUCAL M646 OLRAX W3 BEDER BEDE1N RPVI R02 IDNAN |
| Aircraft | A320/L-V/N |
Departure
| Time | 2026-05-06 11:57 |
|---|---|
| Airport | Ninoy Aquino International Airport (RPLL) |
Arrival
| Time | 2026-05-06 12:50 |
|---|---|
| Airport | Iloilo International Airport (RPVI) |
| Time | Latitude | Longitude | Altitude | Speed | Heading |
|---|---|---|---|---|---|
| 2026-05-06 11:40 | 14.52192 | 121.01000 | 84 ft | 0 kts | 46° |
| 2026-05-06 11:47 | 14.52184 | 121.00991 | 84 ft | 2 kts | 46° |
| 2026-05-06 11:47 | 14.52174 | 121.00980 | 84 ft | 2 kts | 46° |
| 2026-05-06 11:47 | 14.52167 | 121.00973 | 84 ft | 2 kts | 46° |
| 2026-05-06 11:47 | 14.52153 | 121.00958 | 84 ft | 2 kts | 46° |
| 2026-05-06 11:48 | 14.52143 | 121.00947 | 84 ft | 2 kts | 46° |
| 2026-05-06 11:48 | 14.52136 | 121.00939 | 84 ft | 1 kts | 46° |
| 2026-05-06 11:48 | 14.52124 | 121.00930 | 84 ft | 2 kts | 20° |
| 2026-05-06 11:48 | 14.52115 | 121.00928 | 84 ft | 2 kts | 7° |
| 2026-05-06 11:49 | 14.52100 | 121.00928 | 84 ft | 2 kts | 343° |
| 2026-05-06 11:49 | 14.52087 | 121.00935 | 84 ft | 1 kts | 321° |
| 2026-05-06 11:49 | 14.52082 | 121.00939 | 84 ft | 1 kts | 311° |
| 2026-05-06 11:49 | 14.52080 | 121.00942 | 84 ft | 0 kts | 314° |
| 2026-05-06 11:51 | 14.52080 | 121.00941 | 84 ft | 0 kts | 315° |
| 2026-05-06 11:51 | 14.52088 | 121.00933 | 84 ft | 0 kts | 316° |
| 2026-05-06 11:51 | 14.52092 | 121.00930 | 84 ft | 4 kts | 316° |
| 2026-05-06 11:52 | 14.52102 | 121.00919 | 84 ft | 8 kts | 316° |
| 2026-05-06 11:53 | 14.52388 | 121.00625 | 84 ft | 6 kts | 315° |
| 2026-05-06 11:53 | 14.52423 | 121.00588 | 84 ft | 8 kts | 314° |
| 2026-05-06 11:53 | 14.52466 | 121.00543 | 84 ft | 9 kts | 314° |
| 2026-05-06 11:54 | 14.52506 | 121.00500 | 84 ft | 6 kts | 314° |
| 2026-05-06 11:54 | 14.52539 | 121.00461 | 84 ft | 7 kts | 295° |
| 2026-05-06 11:54 | 14.52544 | 121.00404 | 84 ft | 10 kts | 268° |
| 2026-05-06 11:54 | 14.52539 | 121.00320 | 84 ft | 12 kts | 266° |
| 2026-05-06 11:55 | 14.52531 | 121.00267 | 84 ft | 6 kts | 231° |
| 2026-05-06 11:55 | 14.52492 | 121.00275 | 84 ft | 9 kts | 143° |
| 2026-05-06 11:55 | 14.52431 | 121.00335 | 84 ft | 12 kts | 135° |
| 2026-05-06 11:55 | 14.52370 | 121.00398 | 84 ft | 12 kts | 135° |
| 2026-05-06 11:56 | 14.52307 | 121.00464 | 84 ft | 13 kts | 135° |
| 2026-05-06 11:56 | 14.52304 | 121.00467 | 84 ft | 0 kts | 135° |
| 2026-05-06 11:56 | 14.52299 | 121.00472 | 84 ft | 5 kts | 135° |
| 2026-05-06 11:56 | 14.52163 | 121.00612 | 84 ft | 70 kts | 135° |
| 2026-05-06 11:57 | 14.51549 | 121.01243 | 114 ft | 148 kts | 135° |
| 2026-05-06 11:57 | 14.50821 | 121.01953 | 885 ft | 146 kts | 135° |
| 2026-05-06 11:57 | 14.50138 | 121.02615 | 1716 ft | 133 kts | 135° |
| 2026-05-06 11:57 | 14.49483 | 121.03286 | 2151 ft | 141 kts | 136° |
| 2026-05-06 11:58 | 14.48770 | 121.04057 | 2507 ft | 156 kts | 134° |
| 2026-05-06 11:58 | 14.47977 | 121.04890 | 2873 ft | 172 kts | 135° |
| 2026-05-06 11:58 | 14.47103 | 121.05810 | 3091 ft | 186 kts | 135° |
| 2026-05-06 11:58 | 14.46204 | 121.06789 | 3311 ft | 195 kts | 134° |
| 2026-05-06 11:59 | 14.45246 | 121.07835 | 3528 ft | 205 kts | 135° |
| 2026-05-06 11:59 | 14.44233 | 121.08949 | 3727 ft | 220 kts | 135° |
| 2026-05-06 11:59 | 14.43120 | 121.10178 | 3805 ft | 252 kts | 135° |
| 2026-05-06 11:59 | 14.41899 | 121.11517 | 4458 ft | 263 kts | 135° |
| 2026-05-06 12:00 | 14.40561 | 121.12790 | 5192 ft | 268 kts | 152° |
| 2026-05-06 12:00 | 14.38905 | 121.13264 | 5906 ft | 269 kts | 184° |
| 2026-05-06 12:00 | 14.37121 | 121.12763 | 6761 ft | 270 kts | 211° |
| 2026-05-06 12:00 | 14.35610 | 121.11694 | 7588 ft | 272 kts | 217° |
| 2026-05-06 12:01 | 14.34112 | 121.10552 | 8386 ft | 277 kts | 217° |
| 2026-05-06 12:01 | 14.32562 | 121.09397 | 9162 ft | 282 kts | 217° |
| 2026-05-06 12:01 | 14.30945 | 121.08209 | 9959 ft | 286 kts | 217° |
| 2026-05-06 12:01 | 14.29322 | 121.07032 | 10627 ft | 295 kts | 217° |
| 2026-05-06 12:02 | 14.27616 | 121.05804 | 11020 ft | 312 kts | 217° |
| 2026-05-06 12:02 | 14.25765 | 121.04480 | 11388 ft | 331 kts | 217° |
| 2026-05-06 12:02 | 14.23841 | 121.03110 | 11727 ft | 348 kts | 217° |
| 2026-05-06 12:02 | 14.22476 | 121.02142 | 12049 ft | 356 kts | 217° |
| 2026-05-06 12:03 | 14.20430 | 121.00693 | 12726 ft | 362 kts | 216° |
| 2026-05-06 12:03 | 14.17649 | 120.98729 | 13699 ft | 366 kts | 216° |
| 2026-05-06 12:03 | 14.15562 | 120.97256 | 14380 ft | 371 kts | 216° |
| 2026-05-06 12:03 | 14.13431 | 120.95752 | 15056 ft | 375 kts | 216° |
| 2026-05-06 12:04 | 14.11266 | 120.94225 | 15727 ft | 379 kts | 216° |
| 2026-05-06 12:04 | 14.09105 | 120.92703 | 16377 ft | 383 kts | 216° |
| 2026-05-06 12:04 | 14.06885 | 120.91138 | 17028 ft | 388 kts | 216° |
| 2026-05-06 12:04 | 14.04657 | 120.89568 | 17667 ft | 392 kts | 216° |
| 2026-05-06 12:05 | 14.02401 | 120.87978 | 18298 ft | 396 kts | 216° |
| 2026-05-06 12:05 | 14.00125 | 120.86375 | 18916 ft | 400 kts | 216° |
| 2026-05-06 12:05 | 13.97833 | 120.84763 | 19524 ft | 404 kts | 216° |
| 2026-05-06 12:05 | 13.95499 | 120.83120 | 20130 ft | 408 kts | 215° |
| 2026-05-06 12:06 | 13.93139 | 120.81460 | 20730 ft | 411 kts | 215° |
| 2026-05-06 12:06 | 13.90778 | 120.79799 | 21318 ft | 415 kts | 215° |
| 2026-05-06 12:06 | 13.88411 | 120.78138 | 21883 ft | 419 kts | 215° |
| 2026-05-06 12:06 | 13.85986 | 120.76444 | 22446 ft | 422 kts | 215° |
| 2026-05-06 12:07 | 13.83565 | 120.74750 | 22993 ft | 426 kts | 215° |
| 2026-05-06 12:07 | 13.81138 | 120.73051 | 23515 ft | 429 kts | 215° |
| 2026-05-06 12:07 | 13.78672 | 120.71321 | 24024 ft | 432 kts | 215° |
| 2026-05-06 12:07 | 13.76181 | 120.69572 | 24523 ft | 436 kts | 215° |
| 2026-05-06 12:08 | 13.73671 | 120.67811 | 25011 ft | 438 kts | 215° |
| 2026-05-06 12:08 | 13.71147 | 120.66039 | 25480 ft | 441 kts | 214° |
| 2026-05-06 12:08 | 13.68603 | 120.64256 | 25932 ft | 444 kts | 214° |
| 2026-05-06 12:08 | 13.66046 | 120.62461 | 26369 ft | 447 kts | 214° |
| 2026-05-06 12:09 | 13.63514 | 120.60686 | 26782 ft | 450 kts | 214° |
| 2026-05-06 12:09 | 13.60873 | 120.58952 | 27184 ft | 453 kts | 211° |
| 2026-05-06 12:09 | 13.58128 | 120.57370 | 27657 ft | 453 kts | 207° |
| 2026-05-06 12:09 | 13.55300 | 120.55946 | 28246 ft | 451 kts | 205° |
| 2026-05-06 12:10 | 13.52486 | 120.54595 | 28825 ft | 448 kts | 205° |
| 2026-05-06 12:10 | 13.49664 | 120.53249 | 29362 ft | 447 kts | 205° |
| 2026-05-06 12:10 | 13.46854 | 120.51905 | 29880 ft | 446 kts | 205° |
| 2026-05-06 12:10 | 13.44084 | 120.50575 | 30395 ft | 444 kts | 205° |
| 2026-05-06 12:11 | 13.42205 | 120.49672 | 30741 ft | 443 kts | 205° |
| 2026-05-06 12:11 | 13.40367 | 120.48838 | 31063 ft | 442 kts | 201° |
| 2026-05-06 12:11 | 13.32388 | 120.47375 | 32295 ft | 436 kts | 177° |
| 2026-05-06 12:12 | 13.29395 | 120.47675 | 32725 ft | 434 kts | 169° |
| 2026-05-06 12:12 | 13.26481 | 120.48421 | 33138 ft | 432 kts | 160° |
| 2026-05-06 12:12 | 13.23738 | 120.49576 | 33502 ft | 431 kts | 152° |
| 2026-05-06 12:12 | 13.21133 | 120.51091 | 33821 ft | 431 kts | 148° |
| 2026-05-06 12:13 | 13.18597 | 120.52696 | 34122 ft | 432 kts | 147° |
| 2026-05-06 12:13 | 13.16059 | 120.54321 | 34407 ft | 433 kts | 147° |
| 2026-05-06 12:13 | 13.13505 | 120.55947 | 34680 ft | 434 kts | 147° |
| 2026-05-06 12:13 | 13.10949 | 120.57563 | 34856 ft | 435 kts | 148° |
| 2026-05-06 12:14 | 13.05768 | 120.60815 | 34867 ft | 439 kts | 147° |
| 2026-05-06 12:14 | 13.00522 | 120.64104 | 34869 ft | 446 kts | 148° |
| 2026-05-06 12:15 | 12.95185 | 120.67449 | 34871 ft | 453 kts | 149° |
| 2026-05-06 12:15 | 12.89815 | 120.70799 | 34874 ft | 455 kts | 149° |
| 2026-05-06 12:16 | 12.79914 | 120.76963 | 34874 ft | 455 kts | 149° |
| 2026-05-06 12:17 | 12.74404 | 120.80401 | 34873 ft | 455 kts | 149° |
| 2026-05-06 12:17 | 12.69021 | 120.83761 | 34874 ft | 455 kts | 149° |
| 2026-05-06 12:18 | 12.63642 | 120.87118 | 34874 ft | 455 kts | 148° |
| 2026-05-06 12:18 | 12.58235 | 120.90493 | 34879 ft | 455 kts | 149° |
| 2026-05-06 12:19 | 12.52864 | 120.93838 | 34888 ft | 455 kts | 149° |
| 2026-05-06 12:19 | 12.47461 | 120.97208 | 34894 ft | 455 kts | 149° |
| 2026-05-06 12:20 | 12.42079 | 121.00560 | 34898 ft | 452 kts | 149° |
| 2026-05-06 12:20 | 12.36829 | 121.04053 | 34899 ft | 450 kts | 144° |
| 2026-05-06 12:21 | 12.32041 | 121.08102 | 34900 ft | 447 kts | 138° |
| 2026-05-06 12:21 | 12.27548 | 121.12408 | 34900 ft | 443 kts | 137° |
| 2026-05-06 12:22 | 12.23080 | 121.16699 | 34900 ft | 439 kts | 137° |
| 2026-05-06 12:22 | 12.18643 | 121.20947 | 34899 ft | 437 kts | 137° |
| 2026-05-06 12:23 | 12.14231 | 121.25166 | 34899 ft | 436 kts | 137° |
| 2026-05-06 12:23 | 12.09791 | 121.29411 | 34899 ft | 436 kts | 137° |
| 2026-05-06 12:24 | 12.05488 | 121.33521 | 34899 ft | 436 kts | 137° |
| 2026-05-06 12:24 | 12.01779 | 121.37060 | 34898 ft | 436 kts | 137° |
| 2026-05-06 12:25 | 11.94872 | 121.43651 | 33704 ft | 440 kts | 137° |
| 2026-05-06 12:25 | 11.92652 | 121.45768 | 33056 ft | 440 kts | 137° |
| 2026-05-06 12:26 | 11.90410 | 121.47906 | 32388 ft | 441 kts | 137° |
| 2026-05-06 12:26 | 11.88405 | 121.49813 | 31781 ft | 441 kts | 138° |
| 2026-05-06 12:26 | 11.86073 | 121.52020 | 31069 ft | 442 kts | 138° |
| 2026-05-06 12:26 | 11.83831 | 121.54144 | 30398 ft | 442 kts | 138° |
| 2026-05-06 12:27 | 11.81579 | 121.56284 | 29698 ft | 442 kts | 137° |
| 2026-05-06 12:27 | 11.79338 | 121.58416 | 28985 ft | 443 kts | 138° |
| 2026-05-06 12:27 | 11.77086 | 121.60561 | 28244 ft | 444 kts | 138° |
| 2026-05-06 12:27 | 11.74832 | 121.62708 | 27486 ft | 445 kts | 137° |
| 2026-05-06 12:28 | 11.72578 | 121.64855 | 26766 ft | 444 kts | 137° |
| 2026-05-06 12:28 | 11.70342 | 121.66994 | 26271 ft | 438 kts | 138° |
| 2026-05-06 12:28 | 11.68163 | 121.69083 | 25767 ft | 433 kts | 138° |
| 2026-05-06 12:28 | 11.65967 | 121.71179 | 25253 ft | 429 kts | 138° |
| 2026-05-06 12:29 | 11.63804 | 121.73238 | 24741 ft | 425 kts | 138° |
| 2026-05-06 12:29 | 11.61657 | 121.75278 | 24229 ft | 421 kts | 138° |
| 2026-05-06 12:29 | 11.59538 | 121.77291 | 23719 ft | 417 kts | 138° |
| 2026-05-06 12:29 | 11.57454 | 121.79270 | 23219 ft | 414 kts | 138° |
| 2026-05-06 12:30 | 11.55349 | 121.81269 | 22710 ft | 411 kts | 138° |
| 2026-05-06 12:30 | 11.53269 | 121.83244 | 22205 ft | 408 kts | 138° |
| 2026-05-06 12:30 | 11.51214 | 121.85195 | 21703 ft | 405 kts | 138° |
| 2026-05-06 12:30 | 11.49158 | 121.87147 | 21199 ft | 402 kts | 138° |
| 2026-05-06 12:31 | 11.47126 | 121.89075 | 20697 ft | 399 kts | 138° |
| 2026-05-06 12:31 | 11.45111 | 121.90986 | 20194 ft | 396 kts | 138° |
| 2026-05-06 12:31 | 11.43087 | 121.92905 | 19674 ft | 394 kts | 138° |
| 2026-05-06 12:31 | 11.41098 | 121.94793 | 19170 ft | 391 kts | 138° |
| 2026-05-06 12:32 | 11.39131 | 121.96658 | 18674 ft | 388 kts | 138° |
| 2026-05-06 12:32 | 11.37158 | 121.98529 | 18177 ft | 386 kts | 138° |
| 2026-05-06 12:32 | 11.35221 | 122.00366 | 17687 ft | 383 kts | 138° |
| 2026-05-06 12:32 | 11.33285 | 122.02201 | 17197 ft | 381 kts | 138° |
| 2026-05-06 12:33 | 11.31350 | 122.04037 | 16706 ft | 378 kts | 138° |
| 2026-05-06 12:33 | 11.29444 | 122.05844 | 16223 ft | 375 kts | 138° |
| 2026-05-06 12:33 | 11.27538 | 122.07650 | 15736 ft | 373 kts | 139° |
| 2026-05-06 12:33 | 11.25650 | 122.09438 | 15255 ft | 370 kts | 139° |
| 2026-05-06 12:34 | 11.23760 | 122.11227 | 14772 ft | 368 kts | 139° |
| 2026-05-06 12:34 | 11.21894 | 122.12994 | 14294 ft | 365 kts | 139° |
| 2026-05-06 12:34 | 11.20055 | 122.14735 | 13822 ft | 363 kts | 139° |
| 2026-05-06 12:34 | 11.18200 | 122.16492 | 13345 ft | 361 kts | 139° |
| 2026-05-06 12:35 | 11.16377 | 122.18216 | 12875 ft | 358 kts | 139° |
| 2026-05-06 12:35 | 11.14552 | 122.19944 | 12405 ft | 356 kts | 139° |
| 2026-05-06 12:35 | 11.12759 | 122.21641 | 11943 ft | 354 kts | 139° |
| 2026-05-06 12:35 | 11.10967 | 122.23335 | 11479 ft | 352 kts | 139° |
| 2026-05-06 12:36 | 11.09170 | 122.25034 | 11009 ft | 350 kts | 138° |
| 2026-05-06 12:36 | 11.07389 | 122.26717 | 10541 ft | 348 kts | 138° |
| 2026-05-06 12:36 | 11.05646 | 122.28363 | 10230 ft | 340 kts | 138° |
| 2026-05-06 12:36 | 11.03943 | 122.29966 | 10166 ft | 324 kts | 138° |
| 2026-05-06 12:37 | 11.02318 | 122.31491 | 10099 ft | 309 kts | 138° |
| 2026-05-06 12:37 | 11.00779 | 122.32935 | 10027 ft | 295 kts | 138° |
| 2026-05-06 12:37 | 10.99283 | 122.34339 | 9689 ft | 293 kts | 138° |
| 2026-05-06 12:37 | 10.97780 | 122.35747 | 9354 ft | 291 kts | 138° |
| 2026-05-06 12:38 | 10.96304 | 122.37130 | 9031 ft | 289 kts | 138° |
| 2026-05-06 12:38 | 10.94811 | 122.38484 | 8694 ft | 286 kts | 145° |
| 2026-05-06 12:38 | 10.93029 | 122.39249 | 8340 ft | 281 kts | 175° |
| 2026-05-06 12:38 | 10.91111 | 122.39064 | 8032 ft | 275 kts | 196° |
| 2026-05-06 12:39 | 10.89293 | 122.38547 | 7725 ft | 272 kts | 198° |
| 2026-05-06 12:39 | 10.87752 | 122.38094 | 7463 ft | 271 kts | 197° |
| 2026-05-06 12:39 | 10.86184 | 122.37640 | 7197 ft | 269 kts | 197° |
| 2026-05-06 12:39 | 10.84275 | 122.37104 | 6900 ft | 264 kts | 196° |
| 2026-05-06 12:40 | 10.82528 | 122.36622 | 6619 ft | 260 kts | 196° |
| 2026-05-06 12:40 | 10.80802 | 122.36150 | 6332 ft | 255 kts | 196° |
| 2026-05-06 12:40 | 10.79102 | 122.35689 | 6049 ft | 251 kts | 196° |
| 2026-05-06 12:40 | 10.77430 | 122.35237 | 5769 ft | 247 kts | 196° |
| 2026-05-06 12:41 | 10.75785 | 122.34792 | 5493 ft | 243 kts | 196° |
| 2026-05-06 12:41 | 10.74175 | 122.34358 | 5222 ft | 240 kts | 195° |
| 2026-05-06 12:41 | 10.72576 | 122.33926 | 4955 ft | 236 kts | 195° |
| 2026-05-06 12:41 | 10.71009 | 122.33501 | 4777 ft | 228 kts | 195° |
| 2026-05-06 12:42 | 10.69530 | 122.33103 | 4752 ft | 213 kts | 195° |
| 2026-05-06 12:42 | 10.68100 | 122.32868 | 4623 ft | 207 kts | 177° |
| 2026-05-06 12:42 | 10.66745 | 122.33253 | 4406 ft | 199 kts | 151° |
| 2026-05-06 12:42 | 10.65728 | 122.34153 | 4146 ft | 193 kts | 126° |
| 2026-05-06 12:43 | 10.65139 | 122.35349 | 3928 ft | 185 kts | 110° |
| 2026-05-06 12:43 | 10.64730 | 122.36543 | 3754 ft | 175 kts | 107° |
| 2026-05-06 12:43 | 10.64358 | 122.37684 | 3545 ft | 166 kts | 108° |
| 2026-05-06 12:43 | 10.63994 | 122.38766 | 3356 ft | 157 kts | 108° |
| 2026-05-06 12:44 | 10.63670 | 122.40092 | 3137 ft | 155 kts | 90° |
| 2026-05-06 12:44 | 10.63842 | 122.41161 | 2995 ft | 153 kts | 67° |
| 2026-05-06 12:44 | 10.64440 | 122.41999 | 2981 ft | 152 kts | 38° |
| 2026-05-06 12:44 | 10.65326 | 122.42575 | 2942 ft | 152 kts | 25° |
| 2026-05-06 12:45 | 10.66289 | 122.43012 | 2912 ft | 152 kts | 21° |
| 2026-05-06 12:45 | 10.67270 | 122.43401 | 2879 ft | 151 kts | 20° |
| 2026-05-06 12:45 | 10.69120 | 122.44086 | 2725 ft | 151 kts | 19° |
| 2026-05-06 12:46 | 10.70118 | 122.44447 | 2635 ft | 151 kts | 19° |
| 2026-05-06 12:46 | 10.70682 | 122.44653 | 2573 ft | 151 kts | 19° |
| 2026-05-06 12:46 | 10.71707 | 122.45032 | 2352 ft | 149 kts | 19° |
| 2026-05-06 12:47 | 10.72651 | 122.45383 | 2151 ft | 142 kts | 19° |
| 2026-05-06 12:47 | 10.73576 | 122.45728 | 1974 ft | 140 kts | 19° |
| 2026-05-06 12:47 | 10.74478 | 122.46064 | 1792 ft | 139 kts | 19° |
| 2026-05-06 12:47 | 10.75394 | 122.46405 | 1610 ft | 139 kts | 19° |
| 2026-05-06 12:48 | 10.76289 | 122.46738 | 1426 ft | 138 kts | 19° |
| 2026-05-06 12:48 | 10.77194 | 122.47073 | 1241 ft | 138 kts | 19° |
| 2026-05-06 12:48 | 10.78105 | 122.47411 | 1054 ft | 138 kts | 19° |
| 2026-05-06 12:48 | 10.78991 | 122.47739 | 877 ft | 137 kts | 19° |
| 2026-05-06 12:49 | 10.79887 | 122.48072 | 693 ft | 137 kts | 20° |
| 2026-05-06 12:49 | 10.80775 | 122.48401 | 525 ft | 137 kts | 20° |
| 2026-05-06 12:49 | 10.81667 | 122.48736 | 335 ft | 136 kts | 19° |
| 2026-05-06 12:49 | 10.82552 | 122.49063 | 187 ft | 133 kts | 18° |
| 2026-05-06 12:50 | 10.83300 | 122.49337 | 175 ft | 78 kts | 19° |
| 2026-05-06 12:50 | 10.83509 | 122.49418 | 175 ft | 11 kts | 17° |
| 2026-05-06 12:50 | 10.83544 | 122.49432 | 175 ft | 7 kts | 38° |
| 2026-05-06 12:50 | 10.83557 | 122.49464 | 175 ft | 7 kts | 84° |
| 2026-05-06 12:51 | 10.83511 | 122.49610 | 175 ft | 10 kts | 110° |
| 2026-05-06 12:51 | 10.83473 | 122.49670 | 175 ft | 10 kts | 153° |
| 2026-05-06 12:51 | 10.83402 | 122.49665 | 175 ft | 10 kts | 199° |
| 2026-05-06 12:52 | 10.83328 | 122.49638 | 175 ft | 11 kts | 200° |
| 2026-05-06 12:52 | 10.83254 | 122.49610 | 175 ft | 7 kts | 200° |
| 2026-05-06 12:52 | 10.83213 | 122.49595 | 175 ft | 4 kts | 198° |
| 2026-05-06 12:52 | 10.83188 | 122.49603 | 175 ft | 3 kts | 124° |
| 2026-05-06 12:53 | 10.83177 | 122.49626 | 175 ft | 3 kts | 111° |
| 2026-05-06 12:53 | 10.83169 | 122.49648 | 175 ft | 3 kts | 110° |
| 2026-05-06 12:53 | 10.83164 | 122.49662 | 175 ft | 0 kts | 110° |
| 2026-05-06 12:53 | 10.83163 | 122.49663 | 175 ft | 0 kts | 110° |